sensor_id;sensor_type;location;lat;lon;timestamp;temperature;humidity
13440;DHT22;6792;57.698;11.946;2023-05-10T00:01:07;19.50;27.80
13440;DHT22;6792;57.698;11.946;2023-05-10T00:03:37;19.50;27.80
13440;DHT22;6792;57.698;11.946;2023-05-10T00:06:06;19.40;27.80
13440;DHT22;6792;57.698;11.946;2023-05-10T00:08:35;19.40;27.90
13440;DHT22;6792;57.698;11.946;2023-05-10T00:11:05;19.40;27.90
13440;DHT22;6792;57.698;11.946;2023-05-10T00:13:37;19.40;28.00
13440;DHT22;6792;57.698;11.946;2023-05-10T00:16:07;19.40;28.00
13440;DHT22;6792;57.698;11.946;2023-05-10T00:18:36;19.40;28.10
13440;DHT22;6792;57.698;11.946;2023-05-10T00:21:08;19.30;28.10
13440;DHT22;6792;57.698;11.946;2023-05-10T00:23:37;19.30;28.10
13440;DHT22;6792;57.698;11.946;2023-05-10T00:26:07;19.30;27.70
13440;DHT22;6792;57.698;11.946;2023-05-10T00:28:36;19.30;28.20
13440;DHT22;6792;57.698;11.946;2023-05-10T00:31:05;19.30;28.20
13440;DHT22;6792;57.698;11.946;2023-05-10T00:33:36;19.30;28.30
13440;DHT22;6792;57.698;11.946;2023-05-10T00:36:07;19.30;28.30
13440;DHT22;6792;57.698;11.946;2023-05-10T00:38:39;19.20;28.30
13440;DHT22;6792;57.698;11.946;2023-05-10T00:41:12;19.20;28.40
13440;DHT22;6792;57.698;11.946;2023-05-10T00:43:41;19.10;28.00
13440;DHT22;6792;57.698;11.946;2023-05-10T00:46:10;19.20;28.50
13440;DHT22;6792;57.698;11.946;2023-05-10T00:48:39;19.10;28.50
13440;DHT22;6792;57.698;11.946;2023-05-10T00:51:09;19.10;28.60
13440;DHT22;6792;57.698;11.946;2023-05-10T00:53:38;19.10;28.60
13440;DHT22;6792;57.698;11.946;2023-05-10T00:56:08;19.10;28.70
13440;DHT22;6792;57.698;11.946;2023-05-10T00:58:40;19.10;28.20
13440;DHT22;6792;57.698;11.946;2023-05-10T01:01:09;19.10;28.30
13440;DHT22;6792;57.698;11.946;2023-05-10T01:03:40;19.00;28.70
13440;DHT22;6792;57.698;11.946;2023-05-10T01:06:10;19.00;28.70
13440;DHT22;6792;57.698;11.946;2023-05-10T01:08:39;19.00;28.80
13440;DHT22;6792;57.698;11.946;2023-05-10T01:11:09;19.00;28.90
13440;DHT22;6792;57.698;11.946;2023-05-10T01:13:40;18.90;28.90
13440;DHT22;6792;57.698;11.946;2023-05-10T01:16:09;19.00;29.00
13440;DHT22;6792;57.698;11.946;2023-05-10T01:18:40;19.00;29.00
13440;DHT22;6792;57.698;11.946;2023-05-10T01:21:19;18.90;29.00
13440;DHT22;6792;57.698;11.946;2023-05-10T01:24:04;18.90;29.00
13440;DHT22;6792;57.698;11.946;2023-05-10T01:27:03;18.90;29.10
13440;DHT22;6792;57.698;11.946;2023-05-10T01:29:47;18.90;29.10
13440;DHT22;6792;57.698;11.946;2023-05-10T01:32:24;18.90;29.10
13440;DHT22;6792;57.698;11.946;2023-05-10T01:35:00;18.80;29.10
13440;DHT22;6792;57.698;11.946;2023-05-10T01:37:38;18.80;29.20
13440;DHT22;6792;57.698;11.946;2023-05-10T01:40:14;18.80;29.20
13440;DHT22;6792;57.698;11.946;2023-05-10T01:42:47;18.70;29.20
13440;DHT22;6792;57.698;11.946;2023-05-10T01:45:21;18.70;29.30
13440;DHT22;6792;57.698;11.946;2023-05-10T01:47:58;18.70;29.40
13440;DHT22;6792;57.698;11.946;2023-05-10T01:50:30;18.70;29.40
13440;DHT22;6792;57.698;11.946;2023-05-10T01:53:02;18.70;29.50
13440;DHT22;6792;57.698;11.946;2023-05-10T01:55:34;18.70;29.50
13440;DHT22;6792;57.698;11.946;2023-05-10T01:58:08;18.60;29.50
13440;DHT22;6792;57.698;11.946;2023-05-10T02:00:40;18.60;30.00
13440;DHT22;6792;57.698;11.946;2023-05-10T02:03:11;18.60;29.60
13440;DHT22;6792;57.698;11.946;2023-05-10T02:05:42;18.60;29.70
13440;DHT22;6792;57.698;11.946;2023-05-10T02:08:14;18.60;29.70
13440;DHT22;6792;57.698;11.946;2023-05-10T02:10:47;18.50;29.70
13440;DHT22;6792;57.698;11.946;2023-05-10T02:13:18;18.50;29.80
13440;DHT22;6792;57.698;11.946;2023-05-10T02:15:49;18.50;29.90
13440;DHT22;6792;57.698;11.946;2023-05-10T02:18:20;18.50;29.40
13440;DHT22;6792;57.698;11.946;2023-05-10T02:20:52;18.50;29.90
13440;DHT22;6792;57.698;11.946;2023-05-10T02:23:23;18.50;30.00
13440;DHT22;6792;57.698;11.946;2023-05-10T02:25:55;18.40;29.50
13440;DHT22;6792;57.698;11.946;2023-05-10T02:28:25;18.40;30.00
13440;DHT22;6792;57.698;11.946;2023-05-10T02:30:58;18.40;30.00
13440;DHT22;6792;57.698;11.946;2023-05-10T02:33:28;18.40;30.00
13440;DHT22;6792;57.698;11.946;2023-05-10T02:35:58;18.40;30.10
13440;DHT22;6792;57.698;11.946;2023-05-10T02:38:28;18.40;30.10
13440;DHT22;6792;57.698;11.946;2023-05-10T02:41:00;18.30;29.70
13440;DHT22;6792;57.698;11.946;2023-05-10T02:43:31;18.30;30.20
13440;DHT22;6792;57.698;11.946;2023-05-10T02:46:01;18.30;29.90
13440;DHT22;6792;57.698;11.946;2023-05-10T02:48:31;18.30;30.30
13440;DHT22;6792;57.698;11.946;2023-05-10T02:51:04;18.30;30.40
13440;DHT22;6792;57.698;11.946;2023-05-10T02:53:36;18.30;30.40
13440;DHT22;6792;57.698;11.946;2023-05-10T02:56:10;18.20;30.00
13440;DHT22;6792;57.698;11.946;2023-05-10T02:58:43;18.30;30.50
13440;DHT22;6792;57.698;11.946;2023-05-10T03:01:12;18.20;30.00
13440;DHT22;6792;57.698;11.946;2023-05-10T03:03:42;18.20;30.60
13440;DHT22;6792;57.698;11.946;2023-05-10T03:06:11;18.20;30.60
13440;DHT22;6792;57.698;11.946;2023-05-10T03:08:40;18.20;30.60
13440;DHT22;6792;57.698;11.946;2023-05-10T03:11:16;18.20;30.70
13440;DHT22;6792;57.698;11.946;2023-05-10T03:13:49;18.20;30.70
13440;DHT22;6792;57.698;11.946;2023-05-10T03:16:22;18.20;30.80
13440;DHT22;6792;57.698;11.946;2023-05-10T03:18:55;18.10;30.30
13440;DHT22;6792;57.698;11.946;2023-05-10T03:21:28;18.10;30.90
13440;DHT22;6792;57.698;11.946;2023-05-10T03:24:07;18.10;31.00
13440;DHT22;6792;57.698;11.946;2023-05-10T03:26:30;18.10;30.40
13440;DHT22;6792;57.698;11.946;2023-05-10T03:29:01;18.10;31.00
13440;DHT22;6792;57.698;11.946;2023-05-10T03:31:31;18.10;30.50
13440;DHT22;6792;57.698;11.946;2023-05-10T03:34:01;18.10;31.00
13440;DHT22;6792;57.698;11.946;2023-05-10T03:36:30;18.20;31.10
13440;DHT22;6792;57.698;11.946;2023-05-10T03:38:59;18.20;31.10
13440;DHT22;6792;57.698;11.946;2023-05-10T03:41:28;18.10;31.10
13440;DHT22;6792;57.698;11.946;2023-05-10T03:43:57;18.20;31.10
13440;DHT22;6792;57.698;11.946;2023-05-10T03:46:27;18.20;31.10
13440;DHT22;6792;57.698;11.946;2023-05-10T03:48:59;18.20;31.20
13440;DHT22;6792;57.698;11.946;2023-05-10T03:51:28;18.20;31.20
13440;DHT22;6792;57.698;11.946;2023-05-10T03:53:58;18.20;31.20
13440;DHT22;6792;57.698;11.946;2023-05-10T03:56:28;18.10;31.20
13440;DHT22;6792;57.698;11.946;2023-05-10T03:58:57;18.10;31.20
13440;DHT22;6792;57.698;11.946;2023-05-10T04:01:27;18.20;31.30
13440;DHT22;6792;57.698;11.946;2023-05-10T04:03:56;18.20;31.40
13440;DHT22;6792;57.698;11.946;2023-05-10T04:06:25;18.20;31.40
13440;DHT22;6792;57.698;11.946;2023-05-10T04:08:54;18.20;31.40
13440;DHT22;6792;57.698;11.946;2023-05-10T04:11:24;18.20;31.50
13440;DHT22;6792;57.698;11.946;2023-05-10T04:13:53;18.20;30.90
13440;DHT22;6792;57.698;11.946;2023-05-10T04:16:22;18.20;31.50
13440;DHT22;6792;57.698;11.946;2023-05-10T04:18:51;18.10;31.60
13440;DHT22;6792;57.698;11.946;2023-05-10T04:21:21;18.10;31.70
13440;DHT22;6792;57.698;11.946;2023-05-10T04:23:50;18.10;31.70
13440;DHT22;6792;57.698;11.946;2023-05-10T04:26:19;18.20;31.80
13440;DHT22;6792;57.698;11.946;2023-05-10T04:28:49;18.20;31.20
13440;DHT22;6792;57.698;11.946;2023-05-10T04:31:19;18.20;31.80
13440;DHT22;6792;57.698;11.946;2023-05-10T04:33:49;18.20;31.80
13440;DHT22;6792;57.698;11.946;2023-05-10T04:36:18;18.20;31.90
13440;DHT22;6792;57.698;11.946;2023-05-10T04:38:47;18.20;31.80
13440;DHT22;6792;57.698;11.946;2023-05-10T04:41:16;18.30;31.80
13440;DHT22;6792;57.698;11.946;2023-05-10T04:43:46;18.30;31.90
13440;DHT22;6792;57.698;11.946;2023-05-10T04:46:16;18.30;31.90
13440;DHT22;6792;57.698;11.946;2023-05-10T04:48:46;18.30;31.80
13440;DHT22;6792;57.698;11.946;2023-05-10T04:51:17;18.40;32.00
13440;DHT22;6792;57.698;11.946;2023-05-10T04:53:49;18.40;31.90
13440;DHT22;6792;57.698;11.946;2023-05-10T04:56:18;18.40;31.90
13440;DHT22;6792;57.698;11.946;2023-05-10T04:58:47;18.40;31.90
13440;DHT22;6792;57.698;11.946;2023-05-10T05:01:17;18.50;31.90
13440;DHT22;6792;57.698;11.946;2023-05-10T05:03:49;18.40;31.40
13440;DHT22;6792;57.698;11.946;2023-05-10T05:06:19;18.50;32.00
13440;DHT22;6792;57.698;11.946;2023-05-10T05:08:49;18.50;31.90
13440;DHT22;6792;57.698;11.946;2023-05-10T05:11:18;18.50;32.00
13440;DHT22;6792;57.698;11.946;2023-05-10T05:13:48;18.50;32.00
13440;DHT22;6792;57.698;11.946;2023-05-10T05:16:17;18.60;32.00
13440;DHT22;6792;57.698;11.946;2023-05-10T05:18:47;18.60;32.00
13440;DHT22;6792;57.698;11.946;2023-05-10T05:21:17;18.60;32.20
13440;DHT22;6792;57.698;11.946;2023-05-10T05:23:50;18.70;32.00
13440;DHT22;6792;57.698;11.946;2023-05-10T05:26:41;18.70;32.00
13440;DHT22;6792;57.698;11.946;2023-05-10T05:29:10;18.80;32.00
13440;DHT22;6792;57.698;11.946;2023-05-10T05:31:40;18.80;31.90
13440;DHT22;6792;57.698;11.946;2023-05-10T05:34:09;18.90;31.90
13440;DHT22;6792;57.698;11.946;2023-05-10T05:36:39;18.90;31.90
13440;DHT22;6792;57.698;11.946;2023-05-10T05:39:08;18.90;32.00
13440;DHT22;6792;57.698;11.946;2023-05-10T05:41:37;18.90;31.90
13440;DHT22;6792;57.698;11.946;2023-05-10T05:44:07;19.00;31.90
13440;DHT22;6792;57.698;11.946;2023-05-10T05:46:36;19.00;31.90
13440;DHT22;6792;57.698;11.946;2023-05-10T05:49:05;19.00;31.90
13440;DHT22;6792;57.698;11.946;2023-05-10T05:51:34;19.10;31.40
13440;DHT22;6792;57.698;11.946;2023-05-10T05:54:04;19.20;31.90
13440;DHT22;6792;57.698;11.946;2023-05-10T05:56:34;19.20;31.90
13440;DHT22;6792;57.698;11.946;2023-05-10T05:59:03;19.20;31.90
13440;DHT22;6792;57.698;11.946;2023-05-10T06:01:32;19.20;31.90
13440;DHT22;6792;57.698;11.946;2023-05-10T06:04:02;19.30;31.40
13440;DHT22;6792;57.698;11.946;2023-05-10T06:06:32;19.30;31.90
13440;DHT22;6792;57.698;11.946;2023-05-10T06:09:01;19.40;31.80
13440;DHT22;6792;57.698;11.946;2023-05-10T06:11:31;19.40;31.80
13440;DHT22;6792;57.698;11.946;2023-05-10T06:14:00;19.50;31.80
13440;DHT22;6792;57.698;11.946;2023-05-10T06:16:29;19.50;31.80
13440;DHT22;6792;57.698;11.946;2023-05-10T06:19:00;19.60;31.80
13440;DHT22;6792;57.698;11.946;2023-05-10T06:21:36;19.70;31.80
13440;DHT22;6792;57.698;11.946;2023-05-10T06:26:49;19.80;31.20
13440;DHT22;6792;57.698;11.946;2023-05-10T06:29:18;19.80;31.70
13440;DHT22;6792;57.698;11.946;2023-05-10T06:31:47;19.90;31.70
13440;DHT22;6792;57.698;11.946;2023-05-10T06:34:16;20.00;31.70
13440;DHT22;6792;57.698;11.946;2023-05-10T06:36:46;20.10;31.60
13440;DHT22;6792;57.698;11.946;2023-05-10T06:39:16;20.10;31.60
13440;DHT22;6792;57.698;11.946;2023-05-10T06:41:46;20.20;31.50
13440;DHT22;6792;57.698;11.946;2023-05-10T06:46:58;20.40;30.80
13440;DHT22;6792;57.698;11.946;2023-05-10T06:49:28;20.50;31.40
13440;DHT22;6792;57.698;11.946;2023-05-10T06:51:57;20.50;31.20
13440;DHT22;6792;57.698;11.946;2023-05-10T06:54:26;20.70;31.20
13440;DHT22;6792;57.698;11.946;2023-05-10T06:56:55;20.80;31.10
13440;DHT22;6792;57.698;11.946;2023-05-10T06:59:25;20.90;31.00
13440;DHT22;6792;57.698;11.946;2023-05-10T07:01:54;21.10;30.90
13440;DHT22;6792;57.698;11.946;2023-05-10T07:04:24;21.20;30.80
13440;DHT22;6792;57.698;11.946;2023-05-10T07:06:53;21.40;30.80
13440;DHT22;6792;57.698;11.946;2023-05-10T07:09:22;21.50;30.50
13440;DHT22;6792;57.698;11.946;2023-05-10T07:11:52;21.70;30.40
13440;DHT22;6792;57.698;11.946;2023-05-10T07:14:21;21.70;30.20
13440;DHT22;6792;57.698;11.946;2023-05-10T07:16:51;21.80;30.10
13440;DHT22;6792;57.698;11.946;2023-05-10T07:19:20;21.90;30.00
13440;DHT22;6792;57.698;11.946;2023-05-10T07:21:49;22.00;30.00
13440;DHT22;6792;57.698;11.946;2023-05-10T07:24:19;22.10;30.00
13440;DHT22;6792;57.698;11.946;2023-05-10T07:26:48;22.10;29.80
13440;DHT22;6792;57.698;11.946;2023-05-10T07:29:18;22.10;29.70
13440;DHT22;6792;57.698;11.946;2023-05-10T07:31:50;22.20;29.60
13440;DHT22;6792;57.698;11.946;2023-05-10T07:34:19;22.20;29.60
13440;DHT22;6792;57.698;11.946;2023-05-10T07:36:49;22.10;29.10
13440;DHT22;6792;57.698;11.946;2023-05-10T07:39:18;22.20;29.60
13440;DHT22;6792;57.698;11.946;2023-05-10T07:41:48;22.20;29.60
13440;DHT22;6792;57.698;11.946;2023-05-10T07:44:17;22.20;29.60
13440;DHT22;6792;57.698;11.946;2023-05-10T07:46:48;22.30;29.50
13440;DHT22;6792;57.698;11.946;2023-05-10T07:49:17;22.30;29.50
13440;DHT22;6792;57.698;11.946;2023-05-10T07:51:46;22.30;29.40
13440;DHT22;6792;57.698;11.946;2023-05-10T07:54:18;22.30;29.40
13440;DHT22;6792;57.698;11.946;2023-05-10T07:56:48;22.30;29.40
13440;DHT22;6792;57.698;11.946;2023-05-10T07:59:18;22.30;29.40
13440;DHT22;6792;57.698;11.946;2023-05-10T08:01:47;22.30;29.00
13440;DHT22;6792;57.698;11.946;2023-05-10T08:04:17;22.30;29.50
13440;DHT22;6792;57.698;11.946;2023-05-10T08:06:49;22.40;29.40
13440;DHT22;6792;57.698;11.946;2023-05-10T08:09:20;22.40;29.40
13440;DHT22;6792;57.698;11.946;2023-05-10T08:11:51;22.50;29.30
13440;DHT22;6792;57.698;11.946;2023-05-10T08:14:20;22.50;29.30
13440;DHT22;6792;57.698;11.946;2023-05-10T08:16:50;22.50;29.30
13440;DHT22;6792;57.698;11.946;2023-05-10T08:19:19;22.60;28.80
13440;DHT22;6792;57.698;11.946;2023-05-10T08:21:49;22.70;29.20
13440;DHT22;6792;57.698;11.946;2023-05-10T08:24:18;22.70;29.20
13440;DHT22;6792;57.698;11.946;2023-05-10T08:26:48;22.80;28.70
13440;DHT22;6792;57.698;11.946;2023-05-10T08:29:18;22.90;28.70
13440;DHT22;6792;57.698;11.946;2023-05-10T08:31:50;23.00;29.00
13440;DHT22;6792;57.698;11.946;2023-05-10T08:34:19;23.00;28.90
13440;DHT22;6792;57.698;11.946;2023-05-10T08:36:49;23.10;28.80
13440;DHT22;6792;57.698;11.946;2023-05-10T08:39:18;23.10;28.70
13440;DHT22;6792;57.698;11.946;2023-05-10T08:41:48;23.20;28.70
13440;DHT22;6792;57.698;11.946;2023-05-10T08:44:20;23.20;28.50
13440;DHT22;6792;57.698;11.946;2023-05-10T08:46:51;23.30;28.50
13440;DHT22;6792;57.698;11.946;2023-05-10T08:49:22;23.40;28.50
13440;DHT22;6792;57.698;11.946;2023-05-10T08:51:54;23.40;28.40
13440;DHT22;6792;57.698;11.946;2023-05-10T08:54:30;23.40;28.40
13440;DHT22;6792;57.698;11.946;2023-05-10T08:57:01;23.50;28.30
13440;DHT22;6792;57.698;11.946;2023-05-10T08:59:33;23.60;28.30
13440;DHT22;6792;57.698;11.946;2023-05-10T09:02:03;23.60;28.10
13440;DHT22;6792;57.698;11.946;2023-05-10T09:04:33;23.70;28.10
13440;DHT22;6792;57.698;11.946;2023-05-10T09:07:02;23.70;28.10
13440;DHT22;6792;57.698;11.946;2023-05-10T09:09:32;23.70;28.00
13440;DHT22;6792;57.698;11.946;2023-05-10T09:12:02;23.80;28.00
13440;DHT22;6792;57.698;11.946;2023-05-10T09:14:32;23.80;27.90
13440;DHT22;6792;57.698;11.946;2023-05-10T09:17:02;23.80;27.90
13440;DHT22;6792;57.698;11.946;2023-05-10T09:19:31;23.80;27.80
13440;DHT22;6792;57.698;11.946;2023-05-10T09:22:01;23.90;27.80
13440;DHT22;6792;57.698;11.946;2023-05-10T09:24:31;23.90;27.80
13440;DHT22;6792;57.698;11.946;2023-05-10T09:27:01;23.90;27.80
13440;DHT22;6792;57.698;11.946;2023-05-10T09:29:41;23.90;27.70
13440;DHT22;6792;57.698;11.946;2023-05-10T09:32:10;24.00;27.80
13440;DHT22;6792;57.698;11.946;2023-05-10T09:34:39;24.10;27.80
13440;DHT22;6792;57.698;11.946;2023-05-10T09:37:11;24.10;27.70
13440;DHT22;6792;57.698;11.946;2023-05-10T09:39:40;24.10;27.20
13440;DHT22;6792;57.698;11.946;2023-05-10T09:44:38;24.20;27.10
13440;DHT22;6792;57.698;11.946;2023-05-10T09:47:19;24.20;27.50
13440;DHT22;6792;57.698;11.946;2023-05-10T09:49:51;24.20;27.50
13440;DHT22;6792;57.698;11.946;2023-05-10T09:52:23;24.30;27.50
13440;DHT22;6792;57.698;11.946;2023-05-10T09:54:54;24.40;27.40
13440;DHT22;6792;57.698;11.946;2023-05-10T09:57:30;24.40;27.40
13440;DHT22;6792;57.698;11.946;2023-05-10T10:00:01;24.50;26.90
13440;DHT22;6792;57.698;11.946;2023-05-10T10:02:32;24.50;27.30
13440;DHT22;6792;57.698;11.946;2023-05-10T10:05:03;24.60;27.20
13440;DHT22;6792;57.698;11.946;2023-05-10T10:07:32;24.60;27.10
13440;DHT22;6792;57.698;11.946;2023-05-10T10:10:02;24.70;27.00
13440;DHT22;6792;57.698;11.946;2023-05-10T10:12:32;24.70;27.00
13440;DHT22;6792;57.698;11.946;2023-05-10T10:15:01;24.70;26.90
13440;DHT22;6792;57.698;11.946;2023-05-10T10:17:32;24.80;26.90
13440;DHT22;6792;57.698;11.946;2023-05-10T10:20:05;24.80;26.80
13440;DHT22;6792;57.698;11.946;2023-05-10T10:22:34;24.90;26.90
13440;DHT22;6792;57.698;11.946;2023-05-10T10:25:07;24.90;26.70
13440;DHT22;6792;57.698;11.946;2023-05-10T10:27:42;25.00;26.20
13440;DHT22;6792;57.698;11.946;2023-05-10T10:30:21;25.00;26.20
13440;DHT22;6792;57.698;11.946;2023-05-10T10:33:13;25.00;26.00
13440;DHT22;6792;57.698;11.946;2023-05-10T10:35:35;25.00;26.10
13440;DHT22;6792;57.698;11.946;2023-05-10T10:38:04;25.10;26.60
13440;DHT22;6792;57.698;11.946;2023-05-10T10:40:38;25.20;26.50
13440;DHT22;6792;57.698;11.946;2023-05-10T10:43:24;25.20;26.50
13440;DHT22;6792;57.698;11.946;2023-05-10T10:46:11;25.20;25.90
13440;DHT22;6792;57.698;11.946;2023-05-10T10:48:43;25.10;26.00
13440;DHT22;6792;57.698;11.946;2023-05-10T10:51:14;25.20;26.50
13440;DHT22;6792;57.698;11.946;2023-05-10T10:53:48;25.20;25.90
13440;DHT22;6792;57.698;11.946;2023-05-10T10:56:19;25.30;26.20
13440;DHT22;6792;57.698;11.946;2023-05-10T10:58:51;25.40;26.20
13440;DHT22;6792;57.698;11.946;2023-05-10T11:01:21;25.50;26.10
13440;DHT22;6792;57.698;11.946;2023-05-10T11:04:17;25.50;26.00
13440;DHT22;6792;57.698;11.946;2023-05-10T11:06:47;25.60;25.50
13440;DHT22;6792;57.698;11.946;2023-05-10T11:09:17;25.60;26.00
13440;DHT22;6792;57.698;11.946;2023-05-10T11:11:52;25.60;25.80
13440;DHT22;6792;57.698;11.946;2023-05-10T11:14:23;25.70;25.70
13440;DHT22;6792;57.698;11.946;2023-05-10T11:16:52;25.80;26.10
13440;DHT22;6792;57.698;11.946;2023-05-10T11:19:21;25.90;25.10
13440;DHT22;6792;57.698;11.946;2023-05-10T11:21:51;26.00;25.40
13440;DHT22;6792;57.698;11.946;2023-05-10T11:24:23;26.20;25.40
13440;DHT22;6792;57.698;11.946;2023-05-10T11:26:54;26.20;25.30
13440;DHT22;6792;57.698;11.946;2023-05-10T11:29:23;26.30;25.20
13440;DHT22;6792;57.698;11.946;2023-05-10T11:31:57;26.40;25.20
13440;DHT22;6792;57.698;11.946;2023-05-10T11:34:27;26.50;25.10
13440;DHT22;6792;57.698;11.946;2023-05-10T11:36:58;26.50;24.90
13440;DHT22;6792;57.698;11.946;2023-05-10T11:39:28;26.60;24.80
13440;DHT22;6792;57.698;11.946;2023-05-10T11:41:58;26.70;24.70
13440;DHT22;6792;57.698;11.946;2023-05-10T11:44:30;26.80;24.10
13440;DHT22;6792;57.698;11.946;2023-05-10T11:47:00;26.90;24.40
13440;DHT22;6792;57.698;11.946;2023-05-10T11:49:29;27.00;24.30
13440;DHT22;6792;57.698;11.946;2023-05-10T11:52:06;27.10;24.20
13440;DHT22;6792;57.698;11.946;2023-05-10T11:54:35;27.20;24.10
13440;DHT22;6792;57.698;11.946;2023-05-10T11:57:05;27.30;24.00
13440;DHT22;6792;57.698;11.946;2023-05-10T11:59:34;27.30;23.80
13440;DHT22;6792;57.698;11.946;2023-05-10T12:02:04;27.50;23.80
13440;DHT22;6792;57.698;11.946;2023-05-10T12:04:33;27.50;23.70
13440;DHT22;6792;57.698;11.946;2023-05-10T12:07:03;27.60;23.60
13440;DHT22;6792;57.698;11.946;2023-05-10T12:09:33;27.70;23.50
13440;DHT22;6792;57.698;11.946;2023-05-10T12:12:03;27.80;22.90
13440;DHT22;6792;57.698;11.946;2023-05-10T12:14:36;28.00;22.80
13440;DHT22;6792;57.698;11.946;2023-05-10T12:17:05;28.10;23.20
13440;DHT22;6792;57.698;11.946;2023-05-10T12:19:43;28.20;23.10
13440;DHT22;6792;57.698;11.946;2023-05-10T12:22:13;28.40;23.00
13440;DHT22;6792;57.698;11.946;2023-05-10T12:24:42;28.50;22.70
13440;DHT22;6792;57.698;11.946;2023-05-10T12:27:18;28.60;22.50
13440;DHT22;6792;57.698;11.946;2023-05-10T12:29:49;28.80;21.80
13440;DHT22;6792;57.698;11.946;2023-05-10T12:32:18;28.90;22.10
13440;DHT22;6792;57.698;11.946;2023-05-10T12:34:48;29.10;22.00
13440;DHT22;6792;57.698;11.946;2023-05-10T12:37:25;29.20;21.70
13440;DHT22;6792;57.698;11.946;2023-05-10T12:39:55;29.40;21.60
13440;DHT22;6792;57.698;11.946;2023-05-10T12:42:24;29.60;21.50
13440;DHT22;6792;57.698;11.946;2023-05-10T12:44:57;29.80;21.30
13440;DHT22;6792;57.698;11.946;2023-05-10T12:47:26;30.10;20.70
13440;DHT22;6792;57.698;11.946;2023-05-10T12:49:55;30.30;21.10
13440;DHT22;6792;57.698;11.946;2023-05-10T12:52:24;30.50;21.10
13440;DHT22;6792;57.698;11.946;2023-05-10T12:54:54;30.70;20.60
13440;DHT22;6792;57.698;11.946;2023-05-10T12:57:23;30.90;20.30
13440;DHT22;6792;57.698;11.946;2023-05-10T12:59:54;31.20;20.80
13440;DHT22;6792;57.698;11.946;2023-05-10T13:02:23;31.40;20.10
13440;DHT22;6792;57.698;11.946;2023-05-10T13:04:52;31.60;20.60
13440;DHT22;6792;57.698;11.946;2023-05-10T13:07:22;31.80;20.50
13440;DHT22;6792;57.698;11.946;2023-05-10T13:09:51;32.00;20.40
13440;DHT22;6792;57.698;11.946;2023-05-10T13:12:20;32.20;20.40
13440;DHT22;6792;57.698;11.946;2023-05-10T13:14:50;32.50;20.70
13440;DHT22;6792;57.698;11.946;2023-05-10T13:17:19;32.80;20.20
13440;DHT22;6792;57.698;11.946;2023-05-10T13:19:48;33.20;20.20
13440;DHT22;6792;57.698;11.946;2023-05-10T13:22:18;33.70;19.40
13440;DHT22;6792;57.698;11.946;2023-05-10T13:24:47;34.70;19.90
13440;DHT22;6792;57.698;11.946;2023-05-10T13:27:16;35.90;19.70
13440;DHT22;6792;57.698;11.946;2023-05-10T13:29:45;37.20;19.40
13440;DHT22;6792;57.698;11.946;2023-05-10T13:32:15;38.60;19.00
13440;DHT22;6792;57.698;11.946;2023-05-10T13:34:44;39.80;18.40
13440;DHT22;6792;57.698;11.946;2023-05-10T13:37:16;40.90;18.00
13440;DHT22;6792;57.698;11.946;2023-05-10T13:39:46;42.00;17.60
13440;DHT22;6792;57.698;11.946;2023-05-10T13:42:15;43.00;17.20
13440;DHT22;6792;57.698;11.946;2023-05-10T13:44:44;43.80;16.80
13440;DHT22;6792;57.698;11.946;2023-05-10T13:47:13;44.50;16.30
13440;DHT22;6792;57.698;11.946;2023-05-10T13:49:43;45.20;15.90
13440;DHT22;6792;57.698;11.946;2023-05-10T13:52:12;45.80;15.70
13440;DHT22;6792;57.698;11.946;2023-05-10T13:54:42;46.50;15.40
13440;DHT22;6792;57.698;11.946;2023-05-10T13:57:11;47.10;15.10
13440;DHT22;6792;57.698;11.946;2023-05-10T13:59:41;47.60;14.80
13440;DHT22;6792;57.698;11.946;2023-05-10T14:02:11;48.10;14.50
13440;DHT22;6792;57.698;11.946;2023-05-10T14:04:40;48.20;13.90
13440;DHT22;6792;57.698;11.946;2023-05-10T14:07:10;47.60;13.40
13440;DHT22;6792;57.698;11.946;2023-05-10T14:09:39;46.50;13.20
13440;DHT22;6792;57.698;11.946;2023-05-10T14:12:08;45.30;13.10
13440;DHT22;6792;57.698;11.946;2023-05-10T14:14:38;44.10;13.00
13440;DHT22;6792;57.698;11.946;2023-05-10T14:17:08;43.00;13.10
13440;DHT22;6792;57.698;11.946;2023-05-10T14:19:38;42.00;12.80
13440;DHT22;6792;57.698;11.946;2023-05-10T14:22:07;41.10;13.40
13440;DHT22;6792;57.698;11.946;2023-05-10T14:24:37;40.10;13.40
13440;DHT22;6792;57.698;11.946;2023-05-10T14:27:08;39.30;13.20
13440;DHT22;6792;57.698;11.946;2023-05-10T14:29:40;38.60;14.00
13440;DHT22;6792;57.698;11.946;2023-05-10T14:32:09;37.90;14.00
13440;DHT22;6792;57.698;11.946;2023-05-10T14:34:39;37.20;14.10
13440;DHT22;6792;57.698;11.946;2023-05-10T14:37:09;36.50;14.30
13440;DHT22;6792;57.698;11.946;2023-05-10T14:39:38;35.90;14.40
13440;DHT22;6792;57.698;11.946;2023-05-10T14:42:08;35.40;14.60
13440;DHT22;6792;57.698;11.946;2023-05-10T14:44:37;34.90;14.90
13440;DHT22;6792;57.698;11.946;2023-05-10T14:47:07;34.50;15.00
13440;DHT22;6792;57.698;11.946;2023-05-10T14:49:36;34.10;15.20
13440;DHT22;6792;57.698;11.946;2023-05-10T14:52:06;33.70;15.20
13440;DHT22;6792;57.698;11.946;2023-05-10T14:54:35;33.40;15.30
13440;DHT22;6792;57.698;11.946;2023-05-10T14:57:04;33.10;16.00
13440;DHT22;6792;57.698;11.946;2023-05-10T14:59:34;32.90;15.60
13440;DHT22;6792;57.698;11.946;2023-05-10T15:02:06;32.50;15.70
13440;DHT22;6792;57.698;11.946;2023-05-10T15:04:37;32.20;15.80
13440;DHT22;6792;57.698;11.946;2023-05-10T15:07:06;31.90;15.90
13440;DHT22;6792;57.698;11.946;2023-05-10T15:09:36;31.60;16.10
13440;DHT22;6792;57.698;11.946;2023-05-10T15:12:05;31.40;16.20
13440;DHT22;6792;57.698;11.946;2023-05-10T15:14:34;31.20;16.30
13440;DHT22;6792;57.698;11.946;2023-05-10T15:17:05;31.00;16.50
13440;DHT22;6792;57.698;11.946;2023-05-10T15:19:35;30.80;16.60
13440;DHT22;6792;57.698;11.946;2023-05-10T15:22:06;30.60;16.30
13440;DHT22;6792;57.698;11.946;2023-05-10T15:24:36;30.30;16.80
13440;DHT22;6792;57.698;11.946;2023-05-10T15:27:05;30.10;16.80
13440;DHT22;6792;57.698;11.946;2023-05-10T15:29:34;29.90;17.00
13440;DHT22;6792;57.698;11.946;2023-05-10T15:32:04;29.70;17.30
13440;DHT22;6792;57.698;11.946;2023-05-10T15:34:33;29.60;17.20
13440;DHT22;6792;57.698;11.946;2023-05-10T15:37:02;29.50;17.30
13440;DHT22;6792;57.698;11.946;2023-05-10T15:39:32;29.40;17.30
13440;DHT22;6792;57.698;11.946;2023-05-10T15:42:04;29.30;17.40
13440;DHT22;6792;57.698;11.946;2023-05-10T15:44:33;29.10;17.00
13440;DHT22;6792;57.698;11.946;2023-05-10T15:47:07;29.10;17.60
13440;DHT22;6792;57.698;11.946;2023-05-10T15:49:36;29.00;17.70
13440;DHT22;6792;57.698;11.946;2023-05-10T15:52:05;28.90;17.30
13440;DHT22;6792;57.698;11.946;2023-05-10T15:54:53;28.80;17.80
13440;DHT22;6792;57.698;11.946;2023-05-10T15:57:23;28.70;17.50
13440;DHT22;6792;57.698;11.946;2023-05-10T15:59:52;28.70;18.10